Time;durP1;ratioP1;P1;durP2;ratioP2;P2;SDS_P1;SDS_P2;PMS_P1;PMS_P2;Temp;Humidity;BMP_temperature;BMP_pressure;BME280_temperature;BME280_humidity;BME280_pressure;Samples;Min_cycle;Max_cycle;Signal;HPM_P1;HPM_P2
2023/01/14 00:00:54;;;;;;;4.38;2.33;;;;;;;;;;5073853;28;20296;-64
2023/01/14 00:03:21;;;;;;;4.32;1.90;;;;;;;;;;5073371;28;20287;-64
2023/01/14 00:05:55;;;;;;;6.47;2.58;;;;;;;;;;5073313;28;20201;-64
2023/01/14 00:08:23;;;;;;;8.43;3.25;;;;;;;;;;5073480;28;20196;-64
2023/01/14 00:10:51;;;;;;;5.50;2.72;;;;;;;;;;5073551;28;20204;-64
2023/01/14 00:13:18;;;;;;;5.63;2.53;;;;;;;;;;5073564;28;20186;-64
2023/01/14 00:15:53;;;;;;;7.63;3.40;;;;;;;;;;5073518;28;20292;-64
2023/01/14 00:18:20;;;;;;;10.57;3.55;;;;;;;;;;5073286;28;20189;-64
2023/01/14 00:20:56;;;;;;;16.63;4.78;;;;;;;;;;5073476;28;20204;-63
2023/01/14 00:23:23;;;;;;;7.78;3.40;;;;;;;;;;5073279;28;20181;-64
2023/01/14 00:25:52;;;;;;;4.00;3.00;;;;;;;;;;5073020;28;20200;-64
2023/01/14 00:28:19;;;;;;;10.35;4.55;;;;;;;;;;5073258;28;20194;-64
2023/01/14 00:30:46;;;;;;;15.48;5.30;;;;;;;;;;5073592;28;20201;-64
2023/01/14 00:33:14;;;;;;;8.90;4.32;;;;;;;;;;5073228;28;20244;-64
2023/01/14 00:35:41;;;;;;;10.88;4.82;;;;;;;;;;5073292;28;20202;-64
2023/01/14 00:38:08;;;;;;;10.55;4.25;;;;;;;;;;5073431;28;20197;-64
2023/01/14 00:40:36;;;;;;;12.75;4.75;;;;;;;;;;5072859;28;20194;-64
2023/01/14 00:43:04;;;;;;;9.88;3.90;;;;;;;;;;5073071;28;20650;-64
2023/01/14 00:45:31;;;;;;;17.05;5.22;;;;;;;;;;5073184;28;20198;-64
2023/01/14 00:47:58;;;;;;;17.17;4.28;;;;;;;;;;5072768;28;20201;-64
2023/01/14 00:50:26;;;;;;;18.67;4.15;;;;;;;;;;5072785;28;20194;-64
2023/01/14 00:52:53;;;;;;;16.40;5.00;;;;;;;;;;5072695;28;20202;-64
2023/01/14 00:55:20;;;;;;;19.38;5.57;;;;;;;;;;5073116;28;20197;-64
2023/01/14 00:57:47;;;;;;;17.10;4.38;;;;;;;;;;5072935;28;20186;-64
2023/01/14 01:00:16;;;;;;;11.68;3.38;;;;;;;;;;5073248;28;20285;-64
2023/01/14 01:02:44;;;;;;;16.23;4.72;;;;;;;;;;5072822;28;20220;-64
2023/01/14 01:05:11;;;;;;;23.98;4.88;;;;;;;;;;5072682;28;20202;-64
2023/01/14 01:07:38;;;;;;;20.42;4.72;;;;;;;;;;5072595;28;20203;-64
2023/01/14 01:10:06;;;;;;;16.13;4.13;;;;;;;;;;5073007;28;20642;-64
2023/01/14 01:12:33;;;;;;;21.25;4.50;;;;;;;;;;5072346;28;20236;-64
2023/01/14 01:15:00;;;;;;;13.68;3.90;;;;;;;;;;5073085;28;20191;-64
2023/01/14 01:17:28;;;;;;;15.60;4.63;;;;;;;;;;5072899;28;20193;-64
2023/01/14 01:19:57;;;;;;;10.40;3.50;;;;;;;;;;5073032;28;20252;-64
2023/01/14 01:22:24;;;;;;;17.77;4.55;;;;;;;;;;5072314;28;20220;-65
2023/01/14 01:24:52;;;;;;;12.82;4.05;;;;;;;;;;5072504;28;20624;-64
2023/01/14 01:27:19;;;;;;;12.73;4.05;;;;;;;;;;5072989;28;20200;-64
2023/01/14 01:29:46;;;;;;;27.67;4.88;;;;;;;;;;5072785;28;20204;-64
2023/01/14 01:32:13;;;;;;;19.25;4.45;;;;;;;;;;5072350;28;20202;-64
2023/01/14 01:34:40;;;;;;;17.85;4.45;;;;;;;;;;5072412;28;20655;-64
2023/01/14 01:37:09;;;;;;;14.57;4.57;;;;;;;;;;5074853;28;20198;-64
2023/01/14 01:39:36;;;;;;;15.80;5.05;;;;;;;;;;5076455;28;20194;-64
2023/01/14 01:42:03;;;;;;;19.50;5.22;;;;;;;;;;5076029;28;20305;-64
2023/01/14 01:44:54;;;;;;;11.05;4.68;;;;;;;;;;5076137;28;20524;-64
2023/01/14 01:47:23;;;;;;;17.98;4.88;;;;;;;;;;5061131;28;20208;-64
2023/01/14 01:49:50;;;;;;;8.55;3.70;;;;;;;;;;5075758;28;20198;-64
2023/01/14 01:52:20;;;;;;;23.45;5.05;;;;;;;;;;5075693;28;20202;-64
2023/01/14 01:54:49;;;;;;;15.65;4.63;;;;;;;;;;5075964;28;20189;-64
2023/01/14 01:57:17;;;;;;;30.02;5.65;;;;;;;;;;5075963;28;20195;-64
2023/01/14 01:59:46;;;;;;;14.88;4.32;;;;;;;;;;5075811;28;20196;-64
2023/01/14 02:02:13;;;;;;;13.13;4.45;;;;;;;;;;5075502;28;20224;-64
2023/01/14 02:04:41;;;;;;;12.95;4.35;;;;;;;;;;5075706;28;20561;-64
2023/01/14 02:07:15;;;;;;;19.63;4.82;;;;;;;;;;5075814;28;20190;-64
2023/01/14 02:09:44;;;;;;;37.65;5.40;;;;;;;;;;5075397;28;20190;-64
2023/01/14 02:12:19;;;;;;;13.68;4.05;;;;;;;;;;5075597;28;20602;-64
2023/01/14 02:14:53;;;;;;;13.85;4.00;;;;;;;;;;5075232;28;20178;-64
2023/01/14 02:17:23;;;;;;;22.55;5.70;;;;;;;;;;5075427;28;20190;-64
2023/01/14 02:19:58;;;;;;;15.15;3.85;;;;;;;;;;5075142;28;20190;-64
2023/01/14 02:22:35;;;;;;;19.02;5.25;;;;;;;;;;5075683;28;20217;-64
2023/01/14 02:25:20;;;;;;;18.58;4.25;;;;;;;;;;5075417;28;20186;-64
2023/01/14 02:27:51;;;;;;;16.25;4.10;;;;;;;;;;5076137;28;20186;-64
2023/01/14 02:30:36;;;;;;;16.77;3.90;;;;;;;;;;5075035;28;20285;-64
2023/01/14 02:33:09;;;;;;;16.33;4.55;;;;;;;;;;5074919;28;20221;-64
2023/01/14 02:35:39;;;;;;;17.60;4.70;;;;;;;;;;5075400;28;20269;-64
2023/01/14 02:38:15;;;;;;;15.75;4.80;;;;;;;;;;5075363;28;20197;-64
2023/01/14 02:40:44;;;;;;;11.95;4.03;;;;;;;;;;5075084;28;20182;-64
2023/01/14 02:46:01;;;;;;;14.90;4.57;;;;;;;;;;5074858;28;20572;-64
2023/01/14 02:48:31;;;;;;;14.43;4.43;;;;;;;;;;5074891;28;20197;-64
2023/01/14 02:50:58;;;;;;;12.13;4.00;;;;;;;;;;5074645;28;20201;-64
2023/01/14 02:53:25;;;;;;;20.90;5.95;;;;;;;;;;5074949;28;20194;-64
2023/01/14 02:55:53;;;;;;;13.57;4.13;;;;;;;;;;5074590;28;20210;-64
2023/01/14 02:58:28;;;;;;;22.45;4.57;;;;;;;;;;5074813;28;20201;-64
2023/01/14 03:01:00;;;;;;;15.30;3.90;;;;;;;;;;5074484;28;20182;-64
2023/01/14 03:03:37;;;;;;;15.30;5.80;;;;;;;;;;5074598;28;20206;-65
2023/01/14 03:06:17;;;;;;;13.93;3.90;;;;;;;;;;5074827;28;20185;-64
2023/01/14 03:08:49;;;;;;;11.25;4.70;;;;;;;;;;5074792;28;20567;-64
2023/01/14 03:11:16;;;;;;;24.15;5.90;;;;;;;;;;5074066;28;20229;-64
2023/01/14 03:13:48;;;;;;;18.75;4.47;;;;;;;;;;5074395;28;20212;-64
2023/01/14 03:16:19;;;;;;;19.40;4.45;;;;;;;;;;5074141;28;20192;-64
2023/01/14 03:18:50;;;;;;;23.58;5.75;;;;;;;;;;5074320;28;20277;-64
2023/01/14 03:21:19;;;;;;;26.80;4.78;;;;;;;;;;5074064;28;20182;-64
2023/01/14 03:23:49;;;;;;;16.35;5.10;;;;;;;;;;5074067;28;20221;-64
2023/01/14 03:26:16;;;;;;;19.02;4.95;;;;;;;;;;5074476;28;20207;-64
2023/01/14 03:28:47;;;;;;;12.15;4.22;;;;;;;;;;5074556;28;20558;-65
2023/01/14 03:31:16;;;;;;;17.92;6.20;;;;;;;;;;5074649;28;20185;-65
2023/01/14 03:33:45;;;;;;;13.55;4.28;;;;;;;;;;5074055;28;20650;-65
2023/01/14 03:36:14;;;;;;;13.65;4.97;;;;;;;;;;5073714;28;20300;-64
2023/01/14 03:38:43;;;;;;;18.70;4.60;;;;;;;;;;5074010;28;20198;-64
2023/01/14 03:42:17;;;;;;;19.48;5.00;;;;;;;;;;5073464;28;20198;-64
2023/01/14 03:44:01;;;;;;;18.42;4.55;;;;;;;;;;5073750;28;20560;-65
2023/01/14 03:46:29;;;;;;;27.50;4.60;;;;;;;;;;5073602;28;20196;-64
2023/01/14 03:48:56;;;;;;;14.43;5.55;;;;;;;;;;5073771;28;20197;-64
2023/01/14 03:51:28;;;;;;;30.35;5.55;;;;;;;;;;5073829;28;20667;-65
2023/01/14 03:54:01;;;;;;;21.75;5.13;;;;;;;;;;5073877;28;20281;-64
2023/01/14 03:56:34;;;;;;;19.85;5.47;;;;;;;;;;5074049;28;20539;-64
2023/01/14 03:59:04;;;;;;;22.65;6.25;;;;;;;;;;5073714;28;20185;-65
2023/01/14 04:01:33;;;;;;;33.97;6.40;;;;;;;;;;5074130;28;20610;-65
2023/01/14 04:04:01;;;;;;;30.67;7.45;;;;;;;;;;5073899;28;20305;-65
2023/01/14 04:06:30;;;;;;;24.70;5.50;;;;;;;;;;5073907;28;20647;-64
2023/01/14 04:08:57;;;;;;;22.60;6.65;;;;;;;;;;5074043;28;20193;-64
2023/01/14 04:11:25;;;;;;;17.67;5.55;;;;;;;;;;5072824;28;20264;-64
2023/01/14 04:16:37;;;;;;;24.23;6.00;;;;;;;;;;5073288;28;20193;-64
2023/01/14 04:19:04;;;;;;;27.35;6.65;;;;;;;;;;5073685;28;20581;-64
2023/01/14 04:21:32;;;;;;;29.33;8.75;;;;;;;;;;5073396;28;20196;-64
2023/01/14 04:23:59;;;;;;;21.80;6.35;;;;;;;;;;5073535;28;20221;-64
2023/01/14 04:26:28;;;;;;;36.05;6.85;;;;;;;;;;5073008;28;20204;-65
2023/01/14 04:28:55;;;;;;;43.00;6.95;;;;;;;;;;5073336;28;20194;-64
2023/01/14 04:31:22;;;;;;;20.10;6.35;;;;;;;;;;5072969;28;20670;-65
2023/01/14 04:33:49;;;;;;;37.78;8.00;;;;;;;;;;5073732;28;20208;-64
2023/01/14 04:36:16;;;;;;;27.10;7.65;;;;;;;;;;5072872;28;20229;-66
2023/01/14 04:38:45;;;;;;;39.55;8.50;;;;;;;;;;5073294;28;20223;-64
2023/01/14 04:42:26;;;;;;;18.38;6.10;;;;;;;;;;5073220;28;20197;-64
2023/01/14 04:43:59;;;;;;;25.13;6.78;;;;;;;;;;5072902;28;20249;-64
2023/01/14 04:46:27;;;;;;;36.45;7.50;;;;;;;;;;5073205;28;20651;-65
2023/01/14 04:48:54;;;;;;;36.70;7.05;;;;;;;;;;5072627;28;20196;-65
2023/01/14 04:51:21;;;;;;;27.20;7.30;;;;;;;;;;5072810;28;20199;-64
2023/01/14 04:53:49;;;;;;;15.48;5.63;;;;;;;;;;5072879;28;20201;-65
2023/01/14 04:56:17;;;;;;;29.63;7.90;;;;;;;;;;5072977;28;20554;-65
2023/01/14 04:58:44;;;;;;;27.60;7.10;;;;;;;;;;5073093;28;20194;-65
2023/01/14 05:01:11;;;;;;;25.90;6.70;;;;;;;;;;5072834;28;20530;-66
2023/01/14 05:03:38;;;;;;;28.52;7.10;;;;;;;;;;5073036;28;20237;-65
2023/01/14 05:06:06;;;;;;;22.27;6.22;;;;;;;;;;5072620;28;20651;-65
2023/01/14 05:08:33;;;;;;;30.75;7.78;;;;;;;;;;5073055;28;20665;-65
2023/01/14 05:11:01;;;;;;;23.70;5.88;;;;;;;;;;5073065;28;20221;-65
2023/01/14 05:13:29;;;;;;;34.67;7.68;;;;;;;;;;5076783;28;20194;-65
2023/01/14 05:15:59;;;;;;;32.72;7.43;;;;;;;;;;5076672;28;20197;-65
2023/01/14 05:18:27;;;;;;;26.17;6.43;;;;;;;;;;5076769;28;20586;-65
2023/01/14 05:20:54;;;;;;;13.82;5.95;;;;;;;;;;5075968;28;20202;-65
2023/01/14 05:23:21;;;;;;;28.98;6.20;;;;;;;;;;5076536;28;20217;-65
2023/01/14 05:25:50;;;;;;;25.00;5.15;;;;;;;;;;5076486;28;20205;-65
2023/01/14 05:28:19;;;;;;;26.55;6.47;;;;;;;;;;5076518;28;20236;-65
2023/01/14 05:30:46;;;;;;;35.00;7.70;;;;;;;;;;5076052;28;20198;-65
2023/01/14 05:33:13;;;;;;;22.90;6.00;;;;;;;;;;5076119;28;20200;-65
2023/01/14 05:35:41;;;;;;;18.20;4.85;;;;;;;;;;5076448;28;20267;-65
2023/01/14 05:38:08;;;;;;;22.00;5.85;;;;;;;;;;5076030;28;20194;-65
2023/01/14 05:40:36;;;;;;;23.42;5.65;;;;;;;;;;5076238;28;20198;-66
2023/01/14 05:45:49;;;;;;;35.20;6.00;;;;;;;;;;5075963;28;20227;-65
2023/01/14 05:48:17;;;;;;;16.52;4.50;;;;;;;;;;5075847;28;20199;-65
2023/01/14 05:50:44;;;;;;;19.40;4.82;;;;;;;;;;5075878;28;20197;-65
2023/01/14 05:53:11;;;;;;;32.58;4.93;;;;;;;;;;5075716;28;20202;-65
2023/01/14 05:55:39;;;;;;;21.02;5.53;;;;;;;;;;5075603;28;20205;-65
2023/01/14 05:58:07;;;;;;;15.80;4.45;;;;;;;;;;5076421;28;20198;-65
2023/01/14 06:06:24;;;;;;;16.70;5.13;;;;;;;;;;5075535;28;20185;-65
2023/01/14 06:08:52;;;;;;;17.23;4.15;;;;;;;;;;5075491;28;20189;-65
2023/01/14 06:11:20;;;;;;;19.48;5.45;;;;;;;;;;5075935;28;20221;-65
2023/01/14 06:13:48;;;;;;;31.38;4.32;;;;;;;;;;5075701;28;20217;-65
2023/01/14 06:16:15;;;;;;;18.63;4.00;;;;;;;;;;5075466;28;20224;-65
2023/01/14 06:18:43;;;;;;;16.85;5.35;;;;;;;;;;5075521;28;20292;-65
2023/01/14 06:21:12;;;;;;;18.42;4.93;;;;;;;;;;5075107;28;20198;-65
2023/01/14 06:23:39;;;;;;;31.90;6.03;;;;;;;;;;5074757;28;20259;-65
2023/01/14 06:26:09;;;;;;;18.23;4.90;;;;;;;;;;5075251;28;20221;-65
2023/01/14 06:28:37;;;;;;;27.58;6.20;;;;;;;;;;5075391;28;20565;-65
2023/01/14 06:31:09;;;;;;;16.15;5.53;;;;;;;;;;5074961;28;20202;-66
2023/01/14 06:33:36;;;;;;;27.70;4.82;;;;;;;;;;5075411;28;20193;-65
2023/01/14 06:36:05;;;;;;;22.88;5.82;;;;;;;;;;5074933;28;20196;-65
2023/01/14 06:38:32;;;;;;;20.58;4.20;;;;;;;;;;5075075;28;20201;-65
2023/01/14 06:41:00;;;;;;;24.83;4.57;;;;;;;;;;5075143;28;20194;-65
2023/01/14 06:43:27;;;;;;;20.98;4.63;;;;;;;;;;5074808;28;20228;-65
2023/01/14 06:45:54;;;;;;;22.45;6.80;;;;;;;;;;5074769;28;20197;-66
2023/01/14 06:48:21;;;;;;;30.92;5.45;;;;;;;;;;5074842;28;20563;-65
2023/01/14 06:50:49;;;;;;;13.73;4.53;;;;;;;;;;5074870;28;20201;-65
2023/01/14 06:53:17;;;;;;;22.05;4.95;;;;;;;;;;5074870;28;20205;-65
2023/01/14 06:55:44;;;;;;;27.88;5.47;;;;;;;;;;5074467;28;20636;-65
2023/01/14 06:58:12;;;;;;;25.40;5.70;;;;;;;;;;5074377;28;20204;-65
2023/01/14 07:00:39;;;;;;;18.05;4.65;;;;;;;;;;5074968;28;20527;-65
2023/01/14 07:03:06;;;;;;;18.38;6.65;;;;;;;;;;5074692;28;20239;-65
2023/01/14 07:05:33;;;;;;;27.10;5.30;;;;;;;;;;5074646;28;20288;-65
2023/01/14 07:08:01;;;;;;;17.95;5.53;;;;;;;;;;5074207;28;20288;-65
2023/01/14 07:10:29;;;;;;;23.45;5.15;;;;;;;;;;5074892;28;20200;-66
2023/01/14 07:12:57;;;;;;;19.67;5.28;;;;;;;;;;5074611;28;20231;-65
2023/01/14 07:15:24;;;;;;;16.83;4.43;;;;;;;;;;5074455;28;20201;-65
2023/01/14 07:17:51;;;;;;;17.40;4.60;;;;;;;;;;5074037;28;20222;-65
2023/01/14 07:20:18;;;;;;;14.40;3.88;;;;;;;;;;5074495;28;20197;-65
2023/01/14 07:22:45;;;;;;;17.48;4.15;;;;;;;;;;5073848;28;20194;-65
2023/01/14 07:25:13;;;;;;;16.67;4.53;;;;;;;;;;5073802;28;20230;-65
2023/01/14 07:27:41;;;;;;;21.00;5.20;;;;;;;;;;5074134;28;20300;-65
2023/01/14 07:30:09;;;;;;;15.30;3.85;;;;;;;;;;5073864;28;20289;-65
2023/01/14 07:32:36;;;;;;;23.63;4.63;;;;;;;;;;5073991;28;20615;-65
2023/01/14 07:35:04;;;;;;;18.90;5.13;;;;;;;;;;5073735;28;20292;-65
2023/01/14 07:37:31;;;;;;;16.67;4.30;;;;;;;;;;5073916;28;20193;-65
2023/01/14 07:39:58;;;;;;;14.93;4.13;;;;;;;;;;5074024;28;20197;-65
2023/01/14 07:42:26;;;;;;;19.48;5.60;;;;;;;;;;5074007;28;20198;-65
2023/01/14 07:44:54;;;;;;;14.52;4.30;;;;;;;;;;5074049;28;20220;-65
2023/01/14 07:47:22;;;;;;;19.10;4.07;;;;;;;;;;5073417;28;20201;-65
2023/01/14 07:49:49;;;;;;;14.45;4.10;;;;;;;;;;5073945;28;20224;-65
2023/01/14 07:52:16;;;;;;;17.58;3.88;;;;;;;;;;5073755;28;20200;-65
2023/01/14 07:54:43;;;;;;;15.73;3.55;;;;;;;;;;5073292;28;20612;-65
2023/01/14 07:57:11;;;;;;;13.52;3.95;;;;;;;;;;5073845;28;20198;-66
2023/01/14 07:59:39;;;;;;;20.65;4.28;;;;;;;;;;5073327;28;20681;-66
2023/01/14 08:02:11;;;;;;;15.55;4.18;;;;;;;;;;5073597;28;20674;-66
2023/01/14 08:04:38;;;;;;;17.02;3.88;;;;;;;;;;5073592;28;20301;-64
2023/01/14 08:07:06;;;;;;;10.00;3.45;;;;;;;;;;5073593;28;20290;-65
2023/01/14 08:09:34;;;;;;;9.20;4.38;;;;;;;;;;5073146;28;20285;-65
2023/01/14 08:12:02;;;;;;;15.82;3.65;;;;;;;;;;5073086;28;20636;-64
2023/01/14 08:14:29;;;;;;;15.82;4.07;;;;;;;;;;5073326;28;20194;-65
2023/01/14 08:16:56;;;;;;;11.35;3.55;;;;;;;;;;5073789;28;20194;-66
2023/01/14 08:19:25;;;;;;;15.25;4.63;;;;;;;;;;5073451;28;20198;-64
2023/01/14 08:21:52;;;;;;;14.35;3.80;;;;;;;;;;5073342;28;20234;-64
2023/01/14 08:24:19;;;;;;;25.80;4.28;;;;;;;;;;5072680;28;20264;-64
2023/01/14 08:26:46;;;;;;;13.27;3.80;;;;;;;;;;5073532;28;20190;-64
2023/01/14 08:29:17;;;;;;;10.13;3.55;;;;;;;;;;5073501;28;20200;-64
2023/01/14 08:31:44;;;;;;;6.40;3.53;;;;;;;;;;5073100;28;20634;-64
2023/01/14 08:34:13;;;;;;;14.70;3.63;;;;;;;;;;5073239;28;20201;-64
2023/01/14 08:36:41;;;;;;;14.02;4.07;;;;;;;;;;5073326;28;20706;-64
2023/01/14 08:39:10;;;;;;;13.27;3.13;;;;;;;;;;5073542;28;20204;-64
2023/01/14 08:41:38;;;;;;;11.20;3.97;;;;;;;;;;5073086;28;20200;-64
2023/01/14 08:44:05;;;;;;;12.05;3.70;;;;;;;;;;5073046;28;20655;-64
2023/01/14 08:46:32;;;;;;;8.70;2.92;;;;;;;;;;5076383;28;20206;-64
2023/01/14 08:48:59;;;;;;;11.68;4.13;;;;;;;;;;5076837;28;20193;-64
2023/01/14 08:51:28;;;;;;;11.48;3.75;;;;;;;;;;5077239;28;20198;-64
2023/01/14 08:54:00;;;;;;;17.15;3.85;;;;;;;;;;5077053;28;20243;-64
2023/01/14 08:56:28;;;;;;;13.73;4.05;;;;;;;;;;5076982;28;20658;-64
2023/01/14 08:58:55;;;;;;;12.57;3.80;;;;;;;;;;5077230;28;20190;-65
2023/01/14 09:01:22;;;;;;;17.90;3.38;;;;;;;;;;5076716;28;20198;-64
2023/01/14 09:03:51;;;;;;;11.98;3.25;;;;;;;;;;5076518;28;20694;-64
2023/01/14 09:06:19;;;;;;;15.80;3.17;;;;;;;;;;5076456;28;20207;-64
2023/01/14 09:17:05;;;;;;;7.38;3.53;;;;;;;;;;5076495;28;20543;-64
2023/01/14 09:19:34;;;;;;;8.73;2.90;;;;;;;;;;5076548;28;20230;-64
2023/01/14 09:22:01;;;;;;;9.57;3.22;;;;;;;;;;5076288;28;20646;-64
2023/01/14 09:24:28;;;;;;;5.82;3.03;;;;;;;;;;5075948;28;20304;-64
2023/01/14 09:26:57;;;;;;;9.77;4.43;;;;;;;;;;5076214;28;20205;-64
2023/01/14 09:29:24;;;;;;;10.38;4.10;;;;;;;;;;5076420;28;20194;-64
2023/01/14 09:31:51;;;;;;;10.55;2.70;;;;;;;;;;5076127;28;20202;-64
2023/01/14 09:34:19;;;;;;;10.93;4.00;;;;;;;;;;5076290;28;20563;-64
2023/01/14 09:36:46;;;;;;;16.33;3.30;;;;;;;;;;5076972;28;20198;-64
2023/01/14 09:39:13;;;;;;;13.68;3.47;;;;;;;;;;5076157;28;20288;-64
2023/01/14 09:41:45;;;;;;;9.77;3.70;;;;;;;;;;5076137;28;20718;-64
2023/01/14 09:44:14;;;;;;;7.95;3.10;;;;;;;;;;5076107;28;20574;-64
2023/01/14 09:46:41;;;;;;;9.90;3.55;;;;;;;;;;5075819;28;20655;-64
2023/01/14 09:49:08;;;;;;;8.45;3.80;;;;;;;;;;5076651;28;20196;-64
2023/01/14 09:51:53;;;;;;;11.18;3.63;;;;;;;;;;5076277;28;20210;-64
2023/01/14 09:54:25;;;;;;;10.30;3.13;;;;;;;;;;5045012;28;20281;-64
2023/01/14 09:56:55;;;;;;;13.65;3.58;;;;;;;;;;5075248;28;20186;-64
2023/01/14 09:59:27;;;;;;;14.57;3.30;;;;;;;;;;5075156;28;20665;-64
2023/01/14 10:01:58;;;;;;;10.90;5.65;;;;;;;;;;5076370;28;20189;-64
2023/01/14 10:04:30;;;;;;;12.93;3.65;;;;;;;;;;5075624;28;20222;-63
2023/01/14 10:06:58;;;;;;;13.07;3.75;;;;;;;;;;5076042;28;20181;-63
2023/01/14 10:09:28;;;;;;;10.90;3.55;;;;;;;;;;5075842;28;20201;-63
2023/01/14 10:11:55;;;;;;;10.02;3.33;;;;;;;;;;5075185;28;20226;-63
2023/01/14 10:14:26;;;;;;;12.93;2.97;;;;;;;;;;5075156;28;20201;-63
2023/01/14 10:16:56;;;;;;;9.43;3.83;;;;;;;;;;5075330;28;20644;-63
2023/01/14 10:19:28;;;;;;;8.70;3.63;;;;;;;;;;5075033;28;20201;-64
2023/01/14 10:22:00;;;;;;;6.93;3.03;;;;;;;;;;5075557;28;20222;-63
2023/01/14 10:24:28;;;;;;;13.27;4.03;;;;;;;;;;5074947;28;20683;-64
2023/01/14 10:26:55;;;;;;;5.63;2.88;;;;;;;;;;5075471;28;20204;-63
2023/01/14 10:29:24;;;;;;;13.73;4.05;;;;;;;;;;5074942;28;20688;-64
2023/01/14 10:31:55;;;;;;;5.78;3.00;;;;;;;;;;5075241;28;20286;-63
2023/01/14 10:34:26;;;;;;;8.40;3.67;;;;;;;;;;5074937;28;20710;-63
2023/01/14 10:36:53;;;;;;;10.85;2.65;;;;;;;;;;5075398;28;20193;-65
2023/01/14 10:39:20;;;;;;;8.32;3.28;;;;;;;;;;5074906;28;20247;-63
2023/01/14 10:41:51;;;;;;;12.23;3.03;;;;;;;;;;5074765;28;20252;-64
2023/01/14 10:44:23;;;;;;;8.90;2.92;;;;;;;;;;5075176;28;20237;-63
2023/01/14 10:46:50;;;;;;;11.57;2.58;;;;;;;;;;5074589;28;20265;-63
2023/01/14 10:49:21;;;;;;;14.35;5.10;;;;;;;;;;5074933;28;20198;-63
2023/01/14 10:51:50;;;;;;;9.98;3.08;;;;;;;;;;5074883;28;20221;-64
2023/01/14 10:54:18;;;;;;;11.10;2.88;;;;;;;;;;5074629;28;20198;-63
2023/01/14 10:56:47;;;;;;;7.63;2.70;;;;;;;;;;5074443;28;20297;-63
2023/01/14 10:59:38;;;;;;;5.80;2.90;;;;;;;;;;5074441;28;20451;-63
2023/01/14 11:02:06;;;;;;;7.20;2.80;;;;;;;;;;5059363;28;20453;-63
2023/01/14 11:04:36;;;;;;;8.65;2.33;;;;;;;;;;5074575;28;20218;-63
2023/01/14 11:07:09;;;;;;;5.75;2.13;;;;;;;;;;5074439;28;20202;-63
2023/01/14 11:09:37;;;;;;;5.68;2.58;;;;;;;;;;5074566;28;20217;-63
2023/01/14 11:12:05;;;;;;;5.80;2.60;;;;;;;;;;5073911;28;20262;-63
2023/01/14 11:14:37;;;;;;;7.55;2.50;;;;;;;;;;5074336;28;20221;-63
2023/01/14 11:17:20;;;;;;;4.78;2.33;;;;;;;;;;5074415;28;20183;-63
2023/01/14 11:19:49;;;;;;;6.18;2.40;;;;;;;;;;5074658;28;20210;-64
2023/01/14 11:22:16;;;;;;;10.73;2.85;;;;;;;;;;5074215;28;20202;-63
2023/01/14 11:24:46;;;;;;;7.75;2.60;;;;;;;;;;5074073;28;20218;-63
2023/01/14 11:27:15;;;;;;;6.15;2.85;;;;;;;;;;5074215;28;20281;-63
2023/01/14 11:29:44;;;;;;;5.20;3.15;;;;;;;;;;5073877;28;20202;-63
2023/01/14 11:32:12;;;;;;;4.13;2.10;;;;;;;;;;5073738;28;20198;-63
2023/01/14 11:34:41;;;;;;;4.23;2.30;;;;;;;;;;5074650;28;20452;-63
2023/01/14 11:37:16;;;;;;;3.45;3.13;;;;;;;;;;5073952;28;20437;-63
2023/01/14 11:39:47;;;;;;;6.57;2.58;;;;;;;;;;5073669;28;20214;-63
2023/01/14 11:42:30;;;;;;;5.72;2.10;;;;;;;;;;5074135;28;20245;-63
2023/01/14 11:44:58;;;;;;;7.57;2.85;;;;;;;;;;5074084;28;20206;-63
2023/01/14 11:47:26;;;;;;;5.43;2.58;;;;;;;;;;5073849;28;20201;-63
2023/01/14 11:50:10;;;;;;;7.50;4.93;;;;;;;;;;5073872;28;20194;-63
2023/01/14 11:52:39;;;;;;;9.05;2.83;;;;;;;;;;5073809;28;20432;-63
2023/01/14 11:55:13;;;;;;;8.18;2.80;;;;;;;;;;5073777;28;20300;-63
2023/01/14 11:57:42;;;;;;;4.20;2.53;;;;;;;;;;5073775;28;20518;-63
2023/01/14 12:00:10;;;;;;;4.85;2.35;;;;;;;;;;5073725;28;20201;-62
2023/01/14 12:02:40;;;;;;;5.55;2.10;;;;;;;;;;5073406;28;20193;-63
2023/01/14 12:05:12;;;;;;;4.60;2.60;;;;;;;;;;5073588;28;20225;-63
2023/01/14 12:07:43;;;;;;;5.63;2.23;;;;;;;;;;5073252;28;20236;-63
2023/01/14 12:10:16;;;;;;;4.43;3.38;;;;;;;;;;5073533;28;20451;-63
2023/01/14 12:18:28;;;;;;;3.97;1.55;;;;;;;;;;5073476;28;20296;-63
2023/01/14 12:20:55;;;;;;;3.37;2.30;;;;;;;;;;5072618;28;20726;-63
2023/01/14 12:23:27;;;;;;;7.53;2.58;;;;;;;;;;5073425;28;20467;-63
2023/01/14 12:25:55;;;;;;;4.80;2.40;;;;;;;;;;5072964;28;20305;-63
2023/01/14 12:28:29;;;;;;;4.50;2.45;;;;;;;;;;5073482;28;20204;-63
2023/01/14 12:30:58;;;;;;;8.53;2.50;;;;;;;;;;5073989;28;20218;-63
2023/01/14 12:33:37;;;;;;;2.78;2.10;;;;;;;;;;5073232;28;20445;-63
2023/01/14 12:36:09;;;;;;;4.80;2.00;;;;;;;;;;5073011;28;20628;-63
2023/01/14 12:47:03;;;;;;;3.60;2.00;;;;;;;;;;5072949;28;20244;-63
2023/01/14 12:49:30;;;;;;;4.35;2.13;;;;;;;;;;5072832;28;20251;-62
2023/01/14 12:51:58;;;;;;;6.03;2.47;;;;;;;;;;5073311;28;20194;-62
2023/01/14 12:54:29;;;;;;;4.03;2.10;;;;;;;;;;5073123;28;20204;-62
2023/01/14 12:56:57;;;;;;;5.18;1.95;;;;;;;;;;5072702;28;20913;-63
2023/01/14 12:59:29;;;;;;;1.65;1.55;;;;;;;;;;5073240;28;20201;-62
2023/01/14 13:01:57;;;;;;;6.60;2.05;;;;;;;;;;5073054;28;20204;-63
2023/01/14 13:04:27;;;;;;;2.90;2.33;;;;;;;;;;5072892;28;20197;-62
2023/01/14 13:06:56;;;;;;;4.00;2.30;;;;;;;;;;5072760;28;20222;-63
2023/01/14 13:09:25;;;;;;;5.38;2.30;;;;;;;;;;5072383;28;20561;-63
2023/01/14 13:11:55;;;;;;;4.83;2.17;;;;;;;;;;5072574;28;20240;-63
2023/01/14 13:14:33;;;;;;;4.93;2.10;;;;;;;;;;5073377;28;20498;-63
2023/01/14 13:17:01;;;;;;;2.92;1.95;;;;;;;;;;5072989;28;20205;-64
2023/01/14 13:19:36;;;;;;;1.67;1.57;;;;;;;;;;5072558;28;20226;-63
2023/01/14 13:22:04;;;;;;;3.40;1.80;;;;;;;;;;5072697;28;20436;-63
2023/01/14 13:24:38;;;;;;;1.80;1.70;;;;;;;;;;5072801;28;20800;-63
2023/01/14 13:27:20;;;;;;;3.43;1.77;;;;;;;;;;5072145;28;20312;-63
2023/01/14 13:29:48;;;;;;;2.25;1.60;;;;;;;;;;5060022;28;20910;-63
2023/01/14 13:32:31;;;;;;;4.50;1.53;;;;;;;;;;5073573;28;20288;-63
2023/01/14 13:35:04;;;;;;;4.13;2.28;;;;;;;;;;5076625;28;20497;-64
2023/01/14 13:37:43;;;;;;;1.50;1.40;;;;;;;;;;5075958;28;20201;-63
2023/01/14 13:40:17;;;;;;;1.60;1.50;;;;;;;;;;5076336;28;20424;-63
2023/01/14 13:42:45;;;;;;;4.03;1.63;;;;;;;;;;5076742;28;20558;-63
2023/01/14 13:45:27;;;;;;;2.08;1.67;;;;;;;;;;5076161;28;20477;-63
2023/01/14 13:47:55;;;;;;;3.05;1.50;;;;;;;;;;5075869;28;20627;-63
2023/01/14 13:50:27;;;;;;;1.85;1.60;;;;;;;;;;5075900;28;20209;-63
2023/01/14 13:52:59;;;;;;;3.33;2.03;;;;;;;;;;5076087;28;20284;-63
2023/01/14 13:55:28;;;;;;;4.30;1.70;;;;;;;;;;5076001;28;20914;-63
2023/01/14 13:57:59;;;;;;;1.90;1.80;;;;;;;;;;5075649;28;20450;-63
2023/01/14 14:00:34;;;;;;;3.35;1.60;;;;;;;;;;5076097;28;20429;-63
2023/01/14 14:03:16;;;;;;;2.67;1.43;;;;;;;;;;5076430;28;20178;-63
2023/01/14 14:05:44;;;;;;;1.60;1.50;;;;;;;;;;5076519;28;20485;-62
2023/01/14 14:08:26;;;;;;;2.70;1.80;;;;;;;;;;5075373;28;20643;-63
2023/01/14 14:11:00;;;;;;;1.88;1.65;;;;;;;;;;5075827;28;20452;-63
2023/01/14 14:16:18;;;;;;;2.45;1.55;;;;;;;;;;5075509;28;20396;-63
2023/01/14 14:18:50;;;;;;;1.33;1.23;;;;;;;;;;5075333;28;20182;-63
2023/01/14 14:21:19;;;;;;;3.57;1.70;;;;;;;;;;5076029;28;20528;-64
2023/01/14 14:23:49;;;;;;;1.67;1.53;;;;;;;;;;5075492;28;20519;-63
2023/01/14 14:26:17;;;;;;;1.70;1.55;;;;;;;;;;5074806;28;20480;-63
2023/01/14 14:28:46;;;;;;;1.55;1.45;;;;;;;;;;5075861;28;20194;-63
2023/01/14 14:31:16;;;;;;;2.40;1.40;;;;;;;;;;5076063;28;20194;-63
2023/01/14 14:33:45;;;;;;;1.70;1.55;;;;;;;;;;5074909;28;20187;-63
2023/01/14 14:36:16;;;;;;;3.38;1.65;;;;;;;;;;5074873;28;20314;-63
2023/01/14 14:38:46;;;;;;;3.28;2.00;;;;;;;;;;5075366;28;20277;-62
2023/01/14 14:41:16;;;;;;;1.60;1.50;;;;;;;;;;5075468;28;20198;-63
2023/01/14 14:43:45;;;;;;;4.23;2.27;;;;;;;;;;5074713;28;20201;-62
2023/01/14 14:46:15;;;;;;;2.70;1.83;;;;;;;;;;5075080;28;20485;-62
2023/01/14 14:48:42;;;;;;;3.70;1.83;;;;;;;;;;5075306;28;20448;-62
2023/01/14 14:51:20;;;;;;;1.80;1.70;;;;;;;;;;5075259;28;20467;-63
2023/01/14 14:53:48;;;;;;;4.67;1.87;;;;;;;;;;5075139;28;20295;-62
2023/01/14 14:56:16;;;;;;;5.60;1.83;;;;;;;;;;5074866;28;20871;-63
2023/01/14 14:58:44;;;;;;;2.10;1.90;;;;;;;;;;5074637;28;20491;-63
2023/01/14 15:01:12;;;;;;;1.63;1.52;;;;;;;;;;5075036;28;20446;-63
2023/01/14 15:03:40;;;;;;;2.97;1.70;;;;;;;;;;5074625;28;20221;-63
2023/01/14 15:06:11;;;;;;;2.03;1.60;;;;;;;;;;5074319;28;20480;-63
2023/01/14 15:08:42;;;;;;;2.20;1.83;;;;;;;;;;5074185;28;20437;-63
2023/01/14 15:11:11;;;;;;;1.73;1.60;;;;;;;;;;5074234;28;20194;-63
2023/01/14 15:13:42;;;;;;;2.37;1.67;;;;;;;;;;5074188;28;20439;-63
2023/01/14 15:16:15;;;;;;;2.17;1.67;;;;;;;;;;5074640;28;20433;-63
2023/01/14 15:18:45;;;;;;;5.00;1.83;;;;;;;;;;5074890;28;20225;-63
2023/01/14 15:21:13;;;;;;;1.60;1.50;;;;;;;;;;5074016;28;20440;-63
2023/01/14 15:23:44;;;;;;;3.97;2.88;;;;;;;;;;5074687;28;20191;-63
2023/01/14 15:26:15;;;;;;;1.60;1.50;;;;;;;;;;5074468;28;20220;-63
2023/01/14 15:28:42;;;;;;;2.63;2.10;;;;;;;;;;5073931;28;20429;-63